sensor_id;sensor_type;location;lat;lon;timestamp;pressure;altitude;pressure_sealevel;temperature;humidity
14790;BME280;7486;51.010;10.366;2023-02-28T00:01:52;99448.63;;;-4.19;72.75
14790;BME280;7486;51.010;10.366;2023-02-28T00:04:37;99534.28;;;-3.77;72.72
14790;BME280;7486;51.010;10.366;2023-02-28T00:07:23;99527.91;;;-3.87;72.64
14790;BME280;7486;51.010;10.366;2023-02-28T00:10:11;99542.56;;;-3.70;72.07
14790;BME280;7486;51.010;10.366;2023-02-28T00:13:05;99531.53;;;-3.74;72.53
14790;BME280;7486;51.010;10.366;2023-02-28T00:16:26;99531.38;;;-3.71;72.95
14790;BME280;7486;51.010;10.366;2023-02-28T00:19:11;99523.84;;;-3.91;73.79
14790;BME280;7486;51.010;10.366;2023-02-28T00:21:57;99523.19;;;-3.94;74.05
14790;BME280;7486;51.010;10.366;2023-02-28T00:24:42;99521.91;;;-4.03;74.37
14790;BME280;7486;51.010;10.366;2023-02-28T00:27:28;99489.47;;;-4.41;74.38
14790;BME280;7486;51.010;10.366;2023-02-28T00:30:16;99514.31;;;-4.06;74.19
14790;BME280;7486;51.010;10.366;2023-02-28T00:33:02;99516.31;;;-3.80;73.61
14790;BME280;7486;51.010;10.366;2023-02-28T00:35:47;99525.59;;;-3.76;73.52
14790;BME280;7486;51.010;10.366;2023-02-28T00:38:33;99514.06;;;-3.86;73.37
14790;BME280;7486;51.010;10.366;2023-02-28T00:41:19;99508.72;;;-3.99;73.39
14790;BME280;7486;51.010;10.366;2023-02-28T00:44:05;99522.91;;;-3.90;74.00
14790;BME280;7486;51.010;10.366;2023-02-28T00:46:50;99505.91;;;-3.94;73.08
14790;BME280;7486;51.010;10.366;2023-02-28T00:49:35;99466.13;;;-4.24;73.67
14790;BME280;7486;51.010;10.366;2023-02-28T00:52:21;99514.06;;;-3.86;73.24
14790;BME280;7486;51.010;10.366;2023-02-28T00:55:07;99524.06;;;-3.80;72.48
14790;BME280;7486;51.010;10.366;2023-02-28T00:57:53;99525.66;;;-3.93;72.87
14790;BME280;7486;51.010;10.366;2023-02-28T01:00:38;99517.56;;;-3.87;73.38
14790;BME280;7486;51.010;10.366;2023-02-28T01:03:23;99520.69;;;-3.80;72.44
14790;BME280;7486;51.010;10.366;2023-02-28T01:06:09;99515.91;;;-3.88;73.11
14790;BME280;7486;51.010;10.366;2023-02-28T01:08:56;99517.56;;;-3.87;72.55
14790;BME280;7486;51.010;10.366;2023-02-28T01:11:41;99513.81;;;-3.81;72.07
14790;BME280;7486;51.010;10.366;2023-02-28T01:14:27;99521.66;;;-3.83;72.18
14790;BME280;7486;51.010;10.366;2023-02-28T01:17:13;99518.09;;;-3.80;71.78
14790;BME280;7486;51.010;10.366;2023-02-28T01:19:58;99514.31;;;-3.75;71.07
14790;BME280;7486;51.010;10.366;2023-02-28T01:22:44;99515.81;;;-3.71;70.97
14790;BME280;7486;51.010;10.366;2023-02-28T01:25:29;99447.94;;;-4.07;70.51
14790;BME280;7486;51.010;10.366;2023-02-28T01:28:14;99482.66;;;-3.80;70.42
14790;BME280;7486;51.010;10.366;2023-02-28T01:31:00;99504.94;;;-3.62;70.63
14790;BME280;7486;51.010;10.366;2023-02-28T01:33:46;99504.03;;;-3.61;70.46
14790;BME280;7486;51.010;10.366;2023-02-28T01:36:32;99514.28;;;-3.43;70.69
14790;BME280;7486;51.010;10.366;2023-02-28T01:39:17;99492.56;;;-3.41;70.54
14790;BME280;7486;51.010;10.366;2023-02-28T01:42:02;99510.19;;;-3.18;69.74
14790;BME280;7486;51.010;10.366;2023-02-28T01:48:10;99503.97;;;-3.29;69.24
14790;BME280;7486;51.010;10.366;2023-02-28T01:50:59;99510.06;;;-3.30;68.94
14790;BME280;7486;51.010;10.366;2023-02-28T01:53:57;99503.63;;;-3.23;67.99
14790;BME280;7486;51.010;10.366;2023-02-28T01:56:49;99496.41;;;-3.18;67.27
14790;BME280;7486;51.010;10.366;2023-02-28T02:03:01;99494.66;;;-3.48;66.98
14790;BME280;7486;51.010;10.366;2023-02-28T02:05:50;99494.53;;;-3.76;67.12
14790;BME280;7486;51.010;10.366;2023-02-28T02:08:36;99446.03;;;-4.04;68.88
14790;BME280;7486;51.010;10.366;2023-02-28T02:11:23;99490.69;;;-4.00;68.35
14790;BME280;7486;51.010;10.366;2023-02-28T02:14:32;99457.13;;;-4.17;68.87
14790;BME280;7486;51.010;10.366;2023-02-28T02:17:35;99489.44;;;-3.93;68.04
14790;BME280;7486;51.010;10.366;2023-02-28T02:33:08;99441.19;;;-4.41;68.93
14790;BME280;7486;51.010;10.366;2023-02-28T02:41:52;99470.16;;;-4.19;68.51
14790;BME280;7486;51.010;10.366;2023-02-28T02:44:50;99472.41;;;-3.97;67.88
14790;BME280;7486;51.010;10.366;2023-02-28T02:47:38;99483.59;;;-3.97;68.14
14790;BME280;7486;51.010;10.366;2023-02-28T02:50:27;99447.63;;;-4.01;67.69
14790;BME280;7486;51.010;10.366;2023-02-28T02:53:18;99480.72;;;-3.61;68.24
14790;BME280;7486;51.010;10.366;2023-02-28T02:56:07;99483.56;;;-3.50;68.16
14790;BME280;7486;51.010;10.366;2023-02-28T02:58:56;99483.31;;;-3.61;67.63
14790;BME280;7486;51.010;10.366;2023-02-28T03:01:44;99479.16;;;-3.63;66.29
14790;BME280;7486;51.010;10.366;2023-02-28T03:04:38;99484.94;;;-3.74;66.22
14790;BME280;7486;51.010;10.366;2023-02-28T03:07:26;99471.31;;;-3.93;66.24
14790;BME280;7486;51.010;10.366;2023-02-28T03:13:45;99483.00;;;-3.70;66.05
14790;BME280;7486;51.010;10.366;2023-02-28T03:16:43;99481.19;;;-3.84;64.94
14790;BME280;7486;51.010;10.366;2023-02-28T03:22:55;99477.00;;;-4.02;65.18
14790;BME280;7486;51.010;10.366;2023-02-28T03:26:03;99478.00;;;-4.20;64.42
14790;BME280;7486;51.010;10.366;2023-02-28T03:29:19;99475.34;;;-4.19;65.33
14790;BME280;7486;51.010;10.366;2023-02-28T03:32:33;99475.84;;;-4.12;65.87
14790;BME280;7486;51.010;10.366;2023-02-28T03:35:23;99419.59;;;-4.56;64.84
14790;BME280;7486;51.010;10.366;2023-02-28T03:38:33;99472.66;;;-4.17;64.90
14790;BME280;7486;51.010;10.366;2023-02-28T03:41:22;99476.19;;;-4.18;65.66
14790;BME280;7486;51.010;10.366;2023-02-28T03:44:13;99449.81;;;-4.25;64.20
14790;BME280;7486;51.010;10.366;2023-02-28T03:47:05;99466.63;;;-4.33;64.60
14790;BME280;7486;51.010;10.366;2023-02-28T03:50:10;99482.16;;;-4.18;65.94
14790;BME280;7486;51.010;10.366;2023-02-28T03:53:08;99480.34;;;-4.00;64.17
14790;BME280;7486;51.010;10.366;2023-02-28T03:56:32;99480.75;;;-3.92;63.15
14790;BME280;7486;51.010;10.366;2023-02-28T03:59:53;99473.81;;;-4.07;63.81
14790;BME280;7486;51.010;10.366;2023-02-28T04:02:35;99448.63;;;-4.19;62.34
14790;BME280;7486;51.010;10.366;2023-02-28T04:05:21;99476.41;;;-4.07;63.98
14790;BME280;7486;51.010;10.366;2023-02-28T04:08:07;99472.59;;;-4.16;64.56
14790;BME280;7486;51.010;10.366;2023-02-28T04:10:59;99484.09;;;-4.06;63.88
14790;BME280;7486;51.010;10.366;2023-02-28T04:13:46;99480.34;;;-3.84;61.04
14790;BME280;7486;51.010;10.366;2023-02-28T04:16:33;99482.75;;;-3.97;61.68
14790;BME280;7486;51.010;10.366;2023-02-28T04:19:20;99486.69;;;-3.90;62.81
14790;BME280;7486;51.010;10.366;2023-02-28T04:22:05;99488.34;;;-3.89;64.55
14790;BME280;7486;51.010;10.366;2023-02-28T04:24:51;99483.53;;;-3.95;64.19
14790;BME280;7486;51.010;10.366;2023-02-28T04:27:36;99481.94;;;-3.97;64.27
14790;BME280;7486;51.010;10.366;2023-02-28T04:30:22;99485.94;;;-3.92;61.93
14790;BME280;7486;51.010;10.366;2023-02-28T04:33:07;99484.66;;;-4.01;61.38
14790;BME280;7486;51.010;10.366;2023-02-28T04:36:04;99467.84;;;-4.08;62.24
14790;BME280;7486;51.010;10.366;2023-02-28T04:38:50;99485.19;;;-3.78;61.93
14790;BME280;7486;51.010;10.366;2023-02-28T04:41:35;99479.50;;;-3.85;60.42
14790;BME280;7486;51.010;10.366;2023-02-28T04:44:21;99422.66;;;-4.18;60.57
14790;BME280;7486;51.010;10.366;2023-02-28T04:47:07;99498.47;;;-3.84;60.20
14790;BME280;7486;51.010;10.366;2023-02-28T04:49:52;99458.47;;;-4.10;58.25
14790;BME280;7486;51.010;10.366;2023-02-28T04:52:37;99492.38;;;-3.99;60.08
14790;BME280;7486;51.010;10.366;2023-02-28T04:55:23;99495.56;;;-3.94;60.80
14790;BME280;7486;51.010;10.366;2023-02-28T04:58:08;99493.19;;;-3.99;57.83
14790;BME280;7486;51.010;10.366;2023-02-28T05:01:01;99492.28;;;-4.29;58.69
14790;BME280;7486;51.010;10.366;2023-02-28T05:03:48;99478.34;;;-4.26;59.96
14790;BME280;7486;51.010;10.366;2023-02-28T05:06:34;99488.59;;;-4.25;58.24
14790;BME280;7486;51.010;10.366;2023-02-28T05:09:19;99494.00;;;-4.29;59.79
14790;BME280;7486;51.010;10.366;2023-02-28T05:12:05;99504.28;;;-4.61;62.37
14790;BME280;7486;51.010;10.366;2023-02-28T05:14:50;99509.31;;;-4.58;62.94
14790;BME280;7486;51.010;10.366;2023-02-28T05:17:35;99511.31;;;-4.63;64.36
14790;BME280;7486;51.010;10.366;2023-02-28T05:20:21;99485.53;;;-4.64;65.16
14790;BME280;7486;51.010;10.366;2023-02-28T05:23:07;99505.03;;;-4.59;65.95
14790;BME280;7486;51.010;10.366;2023-02-28T05:25:53;99515.31;;;-4.57;67.30
14790;BME280;7486;51.010;10.366;2023-02-28T05:28:38;99516.56;;;-4.49;67.15
14790;BME280;7486;51.010;10.366;2023-02-28T05:31:24;99445.75;;;-4.94;67.68
14790;BME280;7486;51.010;10.366;2023-02-28T05:34:09;99506.06;;;-4.78;68.04
14790;BME280;7486;51.010;10.366;2023-02-28T05:36:54;99519.13;;;-4.64;67.83
14790;BME280;7486;51.010;10.366;2023-02-28T05:39:39;99450.84;;;-5.10;68.12
14790;BME280;7486;51.010;10.366;2023-02-28T05:42:25;99529.81;;;-4.55;68.51
14790;BME280;7486;51.010;10.366;2023-02-28T05:45:12;99470.72;;;-4.78;68.07
14790;BME280;7486;51.010;10.366;2023-02-28T05:48:00;99431.44;;;-4.84;67.17
14790;BME280;7486;51.010;10.366;2023-02-28T05:50:45;99537.38;;;-4.34;67.45
14790;BME280;7486;51.010;10.366;2023-02-28T05:53:31;99448.97;;;-4.74;67.72
14790;BME280;7486;51.010;10.366;2023-02-28T05:56:16;99529.94;;;-4.40;66.36
14790;BME280;7486;51.010;10.366;2023-02-28T05:59:02;99529.66;;;-4.52;66.23
14790;BME280;7486;51.010;10.366;2023-02-28T06:01:47;99486.41;;;-4.81;66.74
14790;BME280;7486;51.010;10.366;2023-02-28T06:04:33;99530.66;;;-4.54;66.34
14790;BME280;7486;51.010;10.366;2023-02-28T06:07:18;99521.38;;;-4.58;66.79
14790;BME280;7486;51.010;10.366;2023-02-28T06:10:04;99466.31;;;-4.93;67.42
14790;BME280;7486;51.010;10.366;2023-02-28T06:12:50;99534.78;;;-4.50;67.59
14790;BME280;7486;51.010;10.366;2023-02-28T06:15:35;99537.31;;;-4.33;67.82
14790;BME280;7486;51.010;10.366;2023-02-28T06:18:21;99489.66;;;-4.77;67.57
14790;BME280;7486;51.010;10.366;2023-02-28T06:21:06;99514.69;;;-4.62;68.15
14790;BME280;7486;51.010;10.366;2023-02-28T06:23:52;99533.03;;;-4.50;66.98
14790;BME280;7486;51.010;10.366;2023-02-28T06:26:39;99541.47;;;-4.30;67.53
14790;BME280;7486;51.010;10.366;2023-02-28T06:29:25;99538.91;;;-4.30;67.21
14790;BME280;7486;51.010;10.366;2023-02-28T06:32:10;99539.75;;;-4.14;67.41
14790;BME280;7486;51.010;10.366;2023-02-28T06:34:55;99525.81;;;-4.27;67.42
14790;BME280;7486;51.010;10.366;2023-02-28T06:37:41;99548.00;;;-4.23;66.27
14790;BME280;7486;51.010;10.366;2023-02-28T06:40:27;99553.06;;;-4.05;65.48
14790;BME280;7486;51.010;10.366;2023-02-28T06:43:12;99561.00;;;-4.08;64.60
14790;BME280;7486;51.010;10.366;2023-02-28T06:45:59;99559.88;;;-4.19;64.25
14790;BME280;7486;51.010;10.366;2023-02-28T06:48:45;99568.06;;;-4.44;65.63
14790;BME280;7486;51.010;10.366;2023-02-28T06:51:30;99565.69;;;-4.49;65.50
14790;BME280;7486;51.010;10.366;2023-02-28T06:54:16;99558.72;;;-4.46;65.44
14790;BME280;7486;51.010;10.366;2023-02-28T06:57:02;99572.75;;;-4.35;64.89
14790;BME280;7486;51.010;10.366;2023-02-28T06:59:49;99564.59;;;-4.27;63.59
14790;BME280;7486;51.010;10.366;2023-02-28T07:02:35;99515.09;;;-4.53;63.32
14790;BME280;7486;51.010;10.366;2023-02-28T07:05:20;99572.81;;;-4.04;61.40
14790;BME280;7486;51.010;10.366;2023-02-28T07:08:06;99562.00;;;-3.94;59.88
14790;BME280;7486;51.010;10.366;2023-02-28T07:10:55;99568.75;;;-4.08;58.88
14790;BME280;7486;51.010;10.366;2023-02-28T07:13:41;99578.69;;;-4.00;58.92
14790;BME280;7486;51.010;10.366;2023-02-28T07:16:26;99576.94;;;-4.00;59.13
14790;BME280;7486;51.010;10.366;2023-02-28T07:19:11;99577.69;;;-3.82;61.29
14790;BME280;7486;51.010;10.366;2023-02-28T07:21:56;99581.53;;;-3.89;62.02
14790;BME280;7486;51.010;10.366;2023-02-28T07:24:42;99543.34;;;-4.17;62.59
14790;BME280;7486;51.010;10.366;2023-02-28T07:27:28;99578.78;;;-3.86;63.00
14790;BME280;7486;51.010;10.366;2023-02-28T07:30:13;99582.53;;;-3.76;63.15
14790;BME280;7486;51.010;10.366;2023-02-28T07:32:58;99581.69;;;-3.92;64.45
14790;BME280;7486;51.010;10.366;2023-02-28T07:35:44;99581.09;;;-3.97;65.17
14790;BME280;7486;51.010;10.366;2023-02-28T07:38:30;99576.19;;;-3.86;63.73
14790;BME280;7486;51.010;10.366;2023-02-28T07:41:18;99582.88;;;-3.97;63.10
14790;BME280;7486;51.010;10.366;2023-02-28T07:44:03;99581.88;;;-3.95;64.08
14790;BME280;7486;51.010;10.366;2023-02-28T07:46:48;99588.97;;;-3.99;64.42
14790;BME280;7486;51.010;10.366;2023-02-28T07:49:38;99543.19;;;-4.14;65.57
14790;BME280;7486;51.010;10.366;2023-02-28T07:52:24;99583.03;;;-3.85;64.54
14790;BME280;7486;51.010;10.366;2023-02-28T07:55:10;99584.97;;;-3.73;63.31
14790;BME280;7486;51.010;10.366;2023-02-28T07:57:57;99587.38;;;-3.70;63.65
14790;BME280;7486;51.010;10.366;2023-02-28T08:00:43;99591.75;;;-3.55;64.96
14790;BME280;7486;51.010;10.366;2023-02-28T08:03:28;99583.41;;;-3.60;64.61
14790;BME280;7486;51.010;10.366;2023-02-28T08:06:20;99587.31;;;-3.37;64.33
14790;BME280;7486;51.010;10.366;2023-02-28T08:09:05;99572.78;;;-3.71;63.42
14790;BME280;7486;51.010;10.366;2023-02-28T08:11:50;99577.63;;;-3.65;63.38
14790;BME280;7486;51.010;10.366;2023-02-28T08:14:37;99535.03;;;-3.75;63.58
14790;BME280;7486;51.010;10.366;2023-02-28T08:17:22;99544.81;;;-3.64;62.35
14790;BME280;7486;51.010;10.366;2023-02-28T08:20:08;99581.53;;;-3.42;62.14
14790;BME280;7486;51.010;10.366;2023-02-28T08:22:54;99576.28;;;-3.40;62.62
14790;BME280;7486;51.010;10.366;2023-02-28T08:25:39;99580.22;;;-3.33;60.80
14790;BME280;7486;51.010;10.366;2023-02-28T08:28:25;99578.69;;;-3.37;61.12
14790;BME280;7486;51.010;10.366;2023-02-28T08:31:14;99556.59;;;-3.13;59.33
14790;BME280;7486;51.010;10.366;2023-02-28T08:34:00;99571.78;;;-2.91;58.24
14790;BME280;7486;51.010;10.366;2023-02-28T08:36:45;99575.28;;;-3.08;55.75
14790;BME280;7486;51.010;10.366;2023-02-28T08:39:34;99560.97;;;-3.29;58.32
14790;BME280;7486;51.010;10.366;2023-02-28T08:42:19;99529.31;;;-3.34;59.03
14790;BME280;7486;51.010;10.366;2023-02-28T08:45:05;99578.06;;;-2.96;59.11
14790;BME280;7486;51.010;10.366;2023-02-28T08:47:51;99566.06;;;-3.12;59.43
14790;BME280;7486;51.010;10.366;2023-02-28T08:50:36;99586.38;;;-2.90;61.00
14790;BME280;7486;51.010;10.366;2023-02-28T08:53:21;99581.31;;;-3.08;56.60
14790;BME280;7486;51.010;10.366;2023-02-28T08:56:11;99588.44;;;-3.11;59.50
14790;BME280;7486;51.010;10.366;2023-02-28T08:58:57;99595.78;;;-3.04;57.51
14790;BME280;7486;51.010;10.366;2023-02-28T09:01:43;99594.88;;;-3.03;58.92
14790;BME280;7486;51.010;10.366;2023-02-28T09:04:28;99599.69;;;-2.97;57.89
14790;BME280;7486;51.010;10.366;2023-02-28T09:07:14;99598.34;;;-2.88;57.92
14790;BME280;7486;51.010;10.366;2023-02-28T09:09:59;99559.47;;;-2.88;56.64
14790;BME280;7486;51.010;10.366;2023-02-28T09:12:44;99586.72;;;-2.81;56.45
14790;BME280;7486;51.010;10.366;2023-02-28T09:15:30;99588.47;;;-2.81;57.03
14790;BME280;7486;51.010;10.366;2023-02-28T09:18:16;99604.19;;;-2.84;55.70
14790;BME280;7486;51.010;10.366;2023-02-28T09:21:04;99589.50;;;-3.00;55.13
14790;BME280;7486;51.010;10.366;2023-02-28T09:23:50;99510.59;;;-3.39;54.44
14790;BME280;7486;51.010;10.366;2023-02-28T09:26:37;99551.50;;;-2.85;55.58
14790;BME280;7486;51.010;10.366;2023-02-28T09:29:32;99586.53;;;-2.78;54.02
14790;BME280;7486;51.010;10.366;2023-02-28T09:32:18;99589.31;;;-2.81;56.00
14790;BME280;7486;51.010;10.366;2023-02-28T09:35:04;99585.19;;;-2.55;56.73
14790;BME280;7486;51.010;10.366;2023-02-28T09:37:50;99591.06;;;-2.37;54.53
14790;BME280;7486;51.010;10.366;2023-02-28T09:40:59;99582.53;;;-2.11;53.76
14790;BME280;7486;51.010;10.366;2023-02-28T09:44:02;99600.44;;;-1.92;56.03
14790;BME280;7486;51.010;10.366;2023-02-28T09:46:54;99589.75;;;-1.88;51.77
14790;BME280;7486;51.010;10.366;2023-02-28T09:49:45;99595.13;;;-2.05;52.43
14790;BME280;7486;51.010;10.366;2023-02-28T09:52:32;99584.13;;;-2.23;52.09
14790;BME280;7486;51.010;10.366;2023-02-28T09:55:37;99591.13;;;-2.39;54.11
14790;BME280;7486;51.010;10.366;2023-02-28T09:58:46;99595.78;;;-1.87;53.95
14790;BME280;7486;51.010;10.366;2023-02-28T10:04:57;99588.41;;;-1.67;52.53
14790;BME280;7486;51.010;10.366;2023-02-28T10:10:50;99601.34;;;-1.79;55.23
14790;BME280;7486;51.010;10.366;2023-02-28T10:14:23;99600.91;;;-1.45;55.44
14790;BME280;7486;51.010;10.366;2023-02-28T10:16:51;99596.81;;;-1.08;53.99
14790;BME280;7486;51.010;10.366;2023-02-28T10:19:56;99573.81;;;-1.14;53.04
14790;BME280;7486;51.010;10.366;2023-02-28T10:22:55;99532.59;;;-1.20;53.85
14790;BME280;7486;51.010;10.366;2023-02-28T10:25:49;99592.59;;;-0.84;52.69
14790;BME280;7486;51.010;10.366;2023-02-28T10:28:35;99542.34;;;-0.84;53.44
14790;BME280;7486;51.010;10.366;2023-02-28T10:31:20;99603.00;;;-0.97;51.32
14790;BME280;7486;51.010;10.366;2023-02-28T10:34:12;99582.38;;;-1.53;49.33
14790;BME280;7486;51.010;10.366;2023-02-28T10:36:58;99614.13;;;-1.76;49.89
14790;BME280;7486;51.010;10.366;2023-02-28T10:39:46;99608.56;;;-1.84;50.28
14790;BME280;7486;51.010;10.366;2023-02-28T10:42:32;99606.28;;;-1.89;51.30
14790;BME280;7486;51.010;10.366;2023-02-28T10:45:18;99532.94;;;-2.07;52.84
14790;BME280;7486;51.010;10.366;2023-02-28T10:48:22;99597.50;;;-1.60;52.52
14790;BME280;7486;51.010;10.366;2023-02-28T10:51:19;99589.94;;;-1.36;52.13
14790;BME280;7486;51.010;10.366;2023-02-28T10:54:28;99588.19;;;-1.50;51.71
14790;BME280;7486;51.010;10.366;2023-02-28T10:57:20;99592.72;;;-1.39;50.91
14790;BME280;7486;51.010;10.366;2023-02-28T11:00:21;99593.44;;;-1.37;52.36
14790;BME280;7486;51.010;10.366;2023-02-28T11:03:24;99588.72;;;-1.30;50.26
14790;BME280;7486;51.010;10.366;2023-02-28T11:06:22;99587.13;;;-1.06;53.58
14790;BME280;7486;51.010;10.366;2023-02-28T11:12:37;99574.56;;;-1.26;53.14
14790;BME280;7486;51.010;10.366;2023-02-28T11:15:35;99531.91;;;-1.36;53.65
14790;BME280;7486;51.010;10.366;2023-02-28T11:18:53;99567.59;;;-0.99;52.75
14790;BME280;7486;51.010;10.366;2023-02-28T11:21:39;99540.25;;;-1.31;50.93
14790;BME280;7486;51.010;10.366;2023-02-28T11:24:36;99573.50;;;-1.36;50.83
14790;BME280;7486;51.010;10.366;2023-02-28T11:33:25;99576.72;;;-1.60;54.57
14790;BME280;7486;51.010;10.366;2023-02-28T11:36:27;99564.31;;;-1.69;55.32
14790;BME280;7486;51.010;10.366;2023-02-28T11:39:14;99569.69;;;-1.58;51.81
14790;BME280;7486;51.010;10.366;2023-02-28T11:42:20;99541.44;;;-1.50;55.23
14790;BME280;7486;51.010;10.366;2023-02-28T11:45:21;99558.53;;;-1.33;51.98
14790;BME280;7486;51.010;10.366;2023-02-28T11:48:21;99560.25;;;-1.19;54.45
14790;BME280;7486;51.010;10.366;2023-02-28T11:51:21;99551.59;;;-1.32;55.86
14790;BME280;7486;51.010;10.366;2023-02-28T11:54:31;99550.47;;;-1.28;52.68
14790;BME280;7486;51.010;10.366;2023-02-28T12:00:33;99560.19;;;-1.45;53.27
14790;BME280;7486;51.010;10.366;2023-02-28T12:06:36;99562.13;;;-1.48;53.97
14790;BME280;7486;51.010;10.366;2023-02-28T12:27:54;99539.13;;;-0.88;52.84
14790;BME280;7486;51.010;10.366;2023-02-28T12:30:49;99544.31;;;-1.01;55.23
14790;BME280;7486;51.010;10.366;2023-02-28T12:33:40;99526.03;;;-0.86;54.30
14790;BME280;7486;51.010;10.366;2023-02-28T12:36:27;99525.03;;;-1.11;51.76
14790;BME280;7486;51.010;10.366;2023-02-28T12:39:18;99546.63;;;-0.96;53.45
14790;BME280;7486;51.010;10.366;2023-02-28T12:42:26;99530.03;;;-1.08;56.08
14790;BME280;7486;51.010;10.366;2023-02-28T12:45:19;99531.22;;;-0.61;54.95
14790;BME280;7486;51.010;10.366;2023-02-28T12:48:08;99520.41;;;-0.68;54.50
14790;BME280;7486;51.010;10.366;2023-02-28T12:50:56;99460.66;;;-0.95;53.46
14790;BME280;7486;51.010;10.366;2023-02-28T12:59:49;99513.72;;;-0.97;53.69
14790;BME280;7486;51.010;10.366;2023-02-28T13:06:05;99513.81;;;-0.99;54.37
14790;BME280;7486;51.010;10.366;2023-02-28T13:09:23;99513.84;;;-0.86;53.21
14790;BME280;7486;51.010;10.366;2023-02-28T13:12:13;99499.69;;;-0.95;53.08
14790;BME280;7486;51.010;10.366;2023-02-28T13:17:52;99526.94;;;-0.75;52.41
14790;BME280;7486;51.010;10.366;2023-02-28T13:20:47;99513.09;;;-1.01;53.74
14790;BME280;7486;51.010;10.366;2023-02-28T13:37:43;99490.72;;;-1.03;55.54
14790;BME280;7486;51.010;10.366;2023-02-28T13:40:33;99503.25;;;-0.83;54.39
14790;BME280;7486;51.010;10.366;2023-02-28T13:43:18;99501.66;;;-0.98;55.26
14790;BME280;7486;51.010;10.366;2023-02-28T13:46:15;99504.31;;;-1.12;56.12
14790;BME280;7486;51.010;10.366;2023-02-28T13:58:10;99500.59;;;-1.08;55.50
14790;BME280;7486;51.010;10.366;2023-02-28T14:01:24;99486.25;;;-1.01;53.87
14790;BME280;7486;51.010;10.366;2023-02-28T14:07:26;99483.88;;;-0.92;54.12
14790;BME280;7486;51.010;10.366;2023-02-28T14:10:23;99484.31;;;-0.72;54.65
14790;BME280;7486;51.010;10.366;2023-02-28T14:16:20;99474.38;;;-0.55;56.08
14790;BME280;7486;51.010;10.366;2023-02-28T14:19:23;99469.50;;;-0.47;54.30
14790;BME280;7486;51.010;10.366;2023-02-28T14:22:39;99476.97;;;-0.29;56.21
14790;BME280;7486;51.010;10.366;2023-02-28T14:31:37;99472.50;;;0.09;54.29
14790;BME280;7486;51.010;10.366;2023-02-28T14:37:33;99474.03;;;-0.12;52.98
14790;BME280;7486;51.010;10.366;2023-02-28T14:40:33;99472.72;;;-0.43;51.95
14790;BME280;7486;51.010;10.366;2023-02-28T14:43:25;99473.78;;;-0.58;52.40
14790;BME280;7486;51.010;10.366;2023-02-28T14:46:12;99473.56;;;-0.68;52.77
14790;BME280;7486;51.010;10.366;2023-02-28T14:48:58;99481.69;;;-0.60;55.89
14790;BME280;7486;51.010;10.366;2023-02-28T14:51:43;99476.91;;;-0.66;55.19
14790;BME280;7486;51.010;10.366;2023-02-28T14:54:29;99456.81;;;-0.89;55.75
14790;BME280;7486;51.010;10.366;2023-02-28T14:57:34;99402.13;;;-1.00;55.16
14790;BME280;7486;51.010;10.366;2023-02-28T15:00:30;99468.06;;;-0.63;54.78
14790;BME280;7486;51.010;10.366;2023-02-28T15:03:40;99462.13;;;-0.91;54.68
14790;BME280;7486;51.010;10.366;2023-02-28T15:06:24;99471.94;;;-1.33;54.70
14790;BME280;7486;51.010;10.366;2023-02-28T15:09:17;99478.31;;;-1.25;56.11
14790;BME280;7486;51.010;10.366;2023-02-28T15:12:03;99461.03;;;-1.38;54.45
14790;BME280;7486;51.010;10.366;2023-02-28T15:14:49;99478.84;;;-1.59;56.08
14790;BME280;7486;51.010;10.366;2023-02-28T15:17:36;99473.63;;;-1.59;55.92
14790;BME280;7486;51.010;10.366;2023-02-28T15:20:22;99478.50;;;-1.40;56.37
14790;BME280;7486;51.010;10.366;2023-02-28T15:23:09;99461.50;;;-1.46;56.20
14790;BME280;7486;51.010;10.366;2023-02-28T15:25:56;99426.66;;;-1.69;54.85
14790;BME280;7486;51.010;10.366;2023-02-28T15:28:43;99476.06;;;-1.44;55.00
14790;BME280;7486;51.010;10.366;2023-02-28T15:31:34;99471.47;;;-1.53;55.07
14790;BME280;7486;51.010;10.366;2023-02-28T15:34:39;99468.81;;;-1.38;56.35
14790;BME280;7486;51.010;10.366;2023-02-28T15:37:46;99461.03;;;-1.38;54.76
14790;BME280;7486;51.010;10.366;2023-02-28T15:40:38;99471.13;;;-1.61;55.19
14790;BME280;7486;51.010;10.366;2023-02-28T15:46:10;99465.22;;;-1.50;56.70
14790;BME280;7486;51.010;10.366;2023-02-28T15:48:57;99438.56;;;-1.79;56.36
14790;BME280;7486;51.010;10.366;2023-02-28T15:51:43;99469.75;;;-1.39;56.45
14790;BME280;7486;51.010;10.366;2023-02-28T15:54:34;99470.97;;;-1.45;56.07
14790;BME280;7486;51.010;10.366;2023-02-28T15:57:23;99477.47;;;-1.65;57.73
14790;BME280;7486;51.010;10.366;2023-02-28T16:00:13;99446.78;;;-1.99;57.15
14790;BME280;7486;51.010;10.366;2023-02-28T16:02:59;99455.34;;;-1.84;57.73
14790;BME280;7486;51.010;10.366;2023-02-28T16:05:45;99482.91;;;-1.82;57.21
14790;BME280;7486;51.010;10.366;2023-02-28T16:08:30;99484.19;;;-1.75;57.01
14790;BME280;7486;51.010;10.366;2023-02-28T16:11:15;99474.16;;;-1.81;56.27
14790;BME280;7486;51.010;10.366;2023-02-28T16:14:01;99420.63;;;-2.23;57.32
14790;BME280;7486;51.010;10.366;2023-02-28T16:16:49;99483.19;;;-1.86;57.82
14790;BME280;7486;51.010;10.366;2023-02-28T16:19:35;99474.16;;;-1.81;56.82
14790;BME280;7486;51.010;10.366;2023-02-28T16:22:21;99478.66;;;-1.97;56.99
14790;BME280;7486;51.010;10.366;2023-02-28T16:25:11;99483.94;;;-1.99;56.88
14790;BME280;7486;51.010;10.366;2023-02-28T16:27:56;99484.81;;;-2.12;57.42
14790;BME280;7486;51.010;10.366;2023-02-28T16:30:42;99492.69;;;-2.00;56.89
14790;BME280;7486;51.010;10.366;2023-02-28T16:33:29;99489.25;;;-2.00;56.92
14790;BME280;7486;51.010;10.366;2023-02-28T16:36:16;99498.09;;;-2.17;57.48
14790;BME280;7486;51.010;10.366;2023-02-28T16:39:02;99478.38;;;-2.33;58.09
14790;BME280;7486;51.010;10.366;2023-02-28T16:41:51;99496.22;;;-2.29;58.90
14790;BME280;7486;51.010;10.366;2023-02-28T16:44:37;99506.34;;;-2.24;58.74
14790;BME280;7486;51.010;10.366;2023-02-28T16:47:22;99508.47;;;-2.17;59.03
14790;BME280;7486;51.010;10.366;2023-02-28T16:50:25;99506.97;;;-2.07;59.16
14790;BME280;7486;51.010;10.366;2023-02-28T16:53:11;99431.09;;;-2.38;58.83
14790;BME280;7486;51.010;10.366;2023-02-28T16:55:56;99469.44;;;-2.29;59.38
14790;BME280;7486;51.010;10.366;2023-02-28T16:58:42;99512.34;;;-1.96;60.15
14790;BME280;7486;51.010;10.366;2023-02-28T17:01:27;99517.13;;;-1.89;60.14
14790;BME280;7486;51.010;10.366;2023-02-28T17:04:14;99504.25;;;-1.91;59.96
14790;BME280;7486;51.010;10.366;2023-02-28T17:06:59;99495.19;;;-2.12;60.09